createdAt,value
2022-11-08T00:01:40.380Z,24.10
2022-11-08T00:04:14.645Z,18.50
2022-11-08T00:07:05.193Z,20.90
2022-11-08T00:09:54.818Z,15.10
2022-11-08T00:12:43.946Z,19.50
2022-11-08T00:15:16.002Z,19.10
2022-11-08T00:17:48.174Z,19.60
2022-11-08T00:20:22.396Z,15.20
2022-11-08T00:22:54.516Z,19.10
2022-11-08T00:25:26.510Z,18.60
2022-11-08T00:27:58.316Z,17.20
2022-11-08T00:30:30.606Z,16.30
2022-11-08T00:33:02.238Z,15.80
2022-11-08T00:35:34.395Z,18.50
2022-11-08T00:38:07.616Z,17.00
2022-11-08T00:40:39.778Z,16.30
2022-11-08T00:43:15.275Z,18.80
2022-11-08T00:45:47.102Z,20.20
2022-11-08T00:48:19.220Z,17.00
2022-11-08T00:50:51.830Z,19.50
2022-11-08T00:53:23.523Z,17.50
2022-11-08T00:56:03.343Z,26.60
2022-11-08T00:58:35.107Z,18.30
2022-11-08T01:01:13.909Z,19.60
2022-11-08T01:03:47.708Z,20.00
2022-11-08T01:06:23.122Z,17.90
2022-11-08T01:08:58.413Z,14.30
2022-11-08T01:11:30.748Z,20.40
2022-11-08T01:14:03.640Z,16.70
2022-11-08T01:16:36.023Z,15.50
2022-11-08T01:19:08.095Z,20.70
2022-11-08T01:49:43.857Z,17.10
2022-11-08T01:52:34.528Z,21.70
2022-11-08T01:55:11.056Z,21.50
2022-11-08T01:57:48.921Z,20.30
2022-11-08T02:00:22.786Z,16.40
2022-11-08T02:03:00.555Z,15.90
2022-11-08T02:05:34.848Z,20.70
2022-11-08T02:08:12.244Z,15.60
2022-11-08T02:10:51.735Z,19.30
2022-11-08T02:13:26.393Z,19.00
2022-11-08T02:15:59.405Z,19.50
2022-11-08T02:18:33.471Z,15.80
2022-11-08T02:21:11.387Z,17.20
2022-11-08T02:23:50.509Z,17.00
2022-11-08T02:26:25.599Z,18.40
2022-11-08T02:28:58.657Z,19.90
2022-11-08T02:31:30.455Z,19.10
2022-11-08T02:34:02.891Z,20.20
2022-11-08T02:36:34.847Z,14.50
2022-11-08T02:39:07.222Z,17.20
2022-11-08T02:41:39.008Z,24.20
2022-11-08T02:44:11.046Z,18.30
2022-11-08T02:46:42.881Z,21.80
2022-11-08T02:49:14.968Z,20.50
2022-11-08T02:51:46.871Z,24.00
2022-11-08T02:54:19.104Z,21.90
2022-11-08T02:56:55.843Z,20.80
2022-11-08T02:59:28.128Z,21.70
2022-11-08T03:02:00.283Z,24.00
2022-11-08T03:04:34.123Z,19.40
2022-11-08T03:07:06.082Z,18.20
2022-11-08T03:09:37.714Z,16.10
2022-11-08T03:12:09.950Z,20.80
2022-11-08T03:14:41.881Z,20.80
2022-11-08T03:17:13.842Z,20.00
2022-11-08T03:19:45.935Z,21.80
2022-11-08T03:22:18.873Z,20.40
2022-11-08T03:24:51.858Z,19.10
2022-11-08T03:27:23.704Z,20.60
2022-11-08T03:29:55.910Z,18.00
2022-11-08T03:32:27.857Z,16.30
2022-11-08T03:35:01.270Z,22.20
2022-11-08T03:37:33.303Z,17.30
2022-11-08T03:40:05.873Z,23.20
2022-11-08T03:42:38.188Z,23.50
2022-11-08T03:45:12.605Z,18.20
2022-11-08T03:47:46.331Z,19.10
2022-11-08T03:50:19.161Z,24.10
2022-11-08T03:52:52.854Z,20.80
2022-11-08T03:55:27.194Z,18.60
2022-11-08T03:57:59.406Z,21.30
2022-11-08T04:00:32.795Z,20.50
2022-11-08T04:03:05.739Z,18.90
2022-11-08T04:05:37.707Z,21.60
2022-11-08T04:08:12.258Z,23.70
2022-11-08T04:10:44.254Z,19.30
2022-11-08T04:13:33.594Z,19.20
2022-11-08T04:16:06.556Z,20.30
2022-11-08T04:18:56.030Z,21.40
2022-11-08T04:21:27.885Z,23.40
2022-11-08T04:23:59.694Z,22.40
2022-11-08T04:26:31.355Z,20.90
2022-11-08T04:29:04.508Z,21.60
2022-11-08T04:31:36.692Z,24.00
2022-11-08T04:34:09.035Z,24.90
2022-11-08T04:36:41.547Z,20.70
2022-11-08T04:39:15.352Z,19.50
2022-11-08T04:41:47.616Z,20.20
2022-11-08T04:44:22.254Z,21.80
2022-11-08T04:46:59.231Z,20.50
2022-11-08T04:49:32.631Z,19.30
2022-11-08T04:52:05.200Z,22.80
2022-11-08T04:54:39.727Z,20.00
2022-11-08T04:57:12.821Z,24.40
2022-11-08T04:59:46.254Z,26.40
2022-11-08T05:02:18.730Z,22.90
2022-11-08T05:04:52.624Z,24.30
2022-11-08T05:07:24.680Z,18.90
2022-11-08T05:10:02.940Z,18.60
2022-11-08T05:12:36.637Z,23.70
2022-11-08T05:15:12.200Z,20.30
2022-11-08T05:17:44.465Z,20.60
2022-11-08T05:20:33.823Z,29.20
2022-11-08T05:23:25.609Z,25.60
2022-11-08T05:25:59.716Z,22.90
2022-11-08T05:28:32.505Z,23.60
2022-11-08T05:31:04.970Z,25.20
2022-11-08T05:33:37.186Z,22.10
2022-11-08T05:36:14.974Z,18.30
2022-11-08T05:38:48.814Z,21.60
2022-11-08T05:41:26.126Z,23.90
2022-11-08T05:43:59.107Z,20.10
2022-11-08T05:46:30.943Z,20.60
2022-11-08T05:49:06.508Z,19.80
2022-11-08T05:51:38.653Z,20.20
2022-11-08T05:54:10.821Z,22.40
2022-11-08T05:56:42.887Z,16.80
2022-11-08T05:59:15.114Z,19.30
2022-11-08T06:01:47.700Z,21.80
2022-11-08T06:04:22.901Z,17.30
2022-11-08T06:06:54.836Z,18.30
2022-11-08T06:09:27.363Z,22.40
2022-11-08T06:11:59.620Z,18.90
2022-11-08T06:14:32.412Z,21.00
2022-11-08T06:17:08.141Z,19.60
2022-11-08T06:19:42.957Z,23.40
2022-11-08T06:22:15.379Z,26.60
2022-11-08T06:24:47.338Z,25.40
2022-11-08T06:27:19.615Z,24.40
2022-11-08T06:29:54.347Z,23.20
2022-11-08T06:32:26.293Z,20.90
2022-11-08T06:34:58.556Z,21.60
2022-11-08T06:37:30.526Z,22.90
2022-11-08T06:40:04.929Z,18.70
2022-11-08T06:42:36.779Z,18.00
2022-11-08T06:45:10.507Z,17.80
2022-11-08T06:47:42.344Z,21.00
2022-11-08T06:50:14.154Z,21.10
2022-11-08T06:52:45.952Z,22.70
2022-11-08T06:55:18.839Z,20.50
2022-11-08T06:57:51.641Z,24.50
2022-11-08T07:00:23.708Z,17.60
2022-11-08T07:02:57.655Z,25.00
2022-11-08T07:05:31.986Z,19.80
2022-11-08T07:08:04.234Z,18.00
2022-11-08T07:10:36.587Z,21.90
2022-11-08T07:13:12.150Z,25.60
2022-11-08T07:15:45.400Z,20.30
2022-11-08T07:18:19.423Z,18.90
2022-11-08T07:20:52.315Z,22.90
2022-11-08T07:23:24.472Z,19.90
2022-11-08T07:25:56.372Z,19.30
2022-11-08T07:28:28.137Z,17.70
2022-11-08T07:31:03.357Z,16.00
2022-11-08T07:33:35.504Z,16.70
2022-11-08T07:36:07.997Z,17.90
2022-11-08T07:38:39.857Z,19.40
2022-11-08T07:41:12.750Z,18.30
2022-11-08T07:43:44.608Z,18.10
2022-11-08T07:46:21.683Z,24.40
2022-11-08T07:48:56.691Z,14.70
2022-11-08T07:51:28.606Z,20.40
2022-11-08T07:54:03.232Z,16.20
2022-11-08T07:56:35.461Z,20.10
2022-11-08T07:59:07.534Z,18.40
2022-11-08T08:01:39.788Z,16.30
2022-11-08T08:04:12.407Z,15.60
2022-11-08T08:06:44.182Z,17.20
2022-11-08T08:09:16.266Z,21.80
2022-11-08T08:11:48.164Z,17.60
2022-11-08T08:14:22.261Z,14.00
2022-11-08T08:16:54.798Z,16.50
2022-11-08T08:19:27.619Z,14.90
2022-11-08T08:21:59.413Z,13.60
2022-11-08T08:24:31.533Z,20.30
2022-11-08T08:27:03.521Z,18.00
2022-11-08T08:29:35.475Z,17.30
2022-11-08T08:32:07.931Z,16.30
2022-11-08T08:34:39.658Z,12.90
2022-11-08T08:37:15.548Z,16.80
2022-11-08T08:39:49.625Z,13.70
2022-11-08T08:42:33.537Z,14.30
2022-11-08T08:45:14.685Z,12.40
2022-11-08T08:47:53.899Z,13.10
2022-11-08T08:50:27.070Z,14.00
2022-11-08T08:53:02.091Z,11.50
2022-11-08T08:55:35.308Z,11.50
2022-11-08T08:58:10.958Z,10.40
2022-11-08T09:03:36.666Z,9.80
2022-11-08T09:06:09.161Z,10.00
2022-11-08T09:08:40.977Z,11.60
2022-11-08T09:11:12.859Z,13.10
2022-11-08T09:13:46.829Z,12.00
2022-11-08T09:16:18.773Z,11.10
2022-11-08T09:18:54.099Z,13.40
2022-11-08T09:21:26.042Z,12.50
2022-11-08T09:23:59.247Z,13.30
2022-11-08T09:26:31.788Z,9.20
2022-11-08T09:29:03.845Z,11.00
2022-11-08T09:31:36.080Z,10.90
2022-11-08T09:34:10.821Z,11.00
2022-11-08T09:36:42.706Z,10.00
2022-11-08T09:39:14.677Z,12.70
2022-11-08T09:42:22.468Z,11.70
2022-11-08T09:45:17.620Z,9.40
2022-11-08T09:47:53.380Z,9.40
2022-11-08T09:50:31.611Z,12.00
2022-11-08T09:53:14.239Z,10.00
2022-11-08T09:55:52.171Z,10.10
2022-11-08T09:58:34.824Z,6.40
2022-11-08T10:01:06.886Z,12.30
2022-11-08T10:03:39.246Z,7.50
2022-11-08T10:06:44.934Z,8.00
2022-11-08T10:09:31.657Z,7.10
2022-11-08T10:12:17.507Z,10.50
2022-11-08T10:15:02.565Z,9.00
2022-11-08T10:17:52.899Z,7.00
2022-11-08T10:20:36.665Z,6.70
2022-11-08T10:23:21.594Z,7.90
2022-11-08T10:25:57.226Z,7.20
2022-11-08T10:28:37.211Z,5.40
2022-11-08T10:31:12.534Z,5.30
2022-11-08T10:33:51.798Z,6.60
2022-11-08T10:36:29.957Z,5.50
2022-11-08T10:39:12.506Z,7.50
2022-11-08T10:41:48.740Z,8.40
2022-11-08T10:44:25.313Z,7.70
2022-11-08T10:47:03.791Z,7.20
2022-11-08T10:49:38.517Z,6.80
2022-11-08T10:52:20.848Z,6.50
2022-11-08T10:54:55.913Z,8.30
2022-11-08T10:57:38.204Z,6.90
2022-11-08T11:00:27.579Z,8.10
2022-11-08T11:03:02.831Z,8.30
2022-11-08T11:05:37.001Z,7.30
2022-11-08T11:08:19.194Z,8.50
2022-11-08T11:10:54.882Z,7.80
2022-11-08T11:18:38.429Z,11.90
2022-11-08T11:21:14.793Z,10.00
2022-11-08T11:23:51.103Z,9.30
2022-11-08T11:26:32.348Z,8.00
2022-11-08T11:29:21.428Z,5.70
2022-11-08T11:31:55.189Z,5.90
2022-11-08T11:34:42.980Z,7.90
2022-11-08T11:37:30.032Z,5.90
2022-11-08T11:40:08.405Z,6.00
2022-11-08T11:42:52.225Z,5.60
2022-11-08T11:45:30.142Z,5.50
2022-11-08T11:50:38.068Z,6.70
2022-11-08T11:53:18.094Z,7.60
2022-11-08T11:56:19.169Z,6.40
2022-11-08T11:59:26.039Z,5.40
2022-11-08T12:02:16.029Z,5.40
2022-11-08T12:05:10.558Z,5.80
2022-11-08T12:07:48.121Z,8.60
2022-11-08T12:10:30.524Z,4.60
2022-11-08T12:13:16.069Z,6.60
2022-11-08T12:15:54.707Z,9.80
2022-11-08T12:18:45.414Z,8.20
2022-11-08T12:21:21.850Z,7.80
2022-11-08T12:24:10.062Z,6.20
2022-11-08T12:26:52.480Z,12.20
2022-11-08T12:29:31.190Z,5.90
2022-11-08T12:32:25.633Z,5.90
2022-11-08T12:35:09.539Z,6.70
2022-11-08T12:37:55.217Z,6.20
2022-11-08T12:40:35.620Z,6.70
2022-11-08T12:43:20.124Z,6.90
2022-11-08T12:46:03.355Z,8.40
2022-11-08T12:48:59.154Z,8.20
2022-11-08T12:51:41.580Z,6.60
2022-11-08T12:54:42.632Z,8.30
2022-11-08T12:57:17.835Z,8.60
2022-11-08T12:59:53.815Z,5.70
2022-11-08T13:02:31.489Z,10.30
2022-11-08T13:05:11.573Z,7.20
2022-11-08T13:07:53.767Z,8.10
2022-11-08T13:10:35.631Z,6.30
2022-11-08T13:13:20.321Z,9.20
2022-11-08T13:16:18.982Z,11.30
2022-11-08T13:18:55.782Z,6.80
2022-11-08T13:21:43.210Z,7.10
2022-11-08T13:24:45.350Z,9.50
2022-11-08T13:27:34.270Z,7.70
2022-11-08T13:30:34.936Z,7.20
2022-11-08T13:33:13.832Z,6.40
2022-11-08T13:35:57.100Z,10.10
2022-11-08T13:38:40.104Z,8.90
2022-11-08T13:41:18.551Z,6.60
2022-11-08T13:43:56.282Z,8.20
2022-11-08T13:46:52.825Z,8.90
2022-11-08T13:49:25.310Z,11.70
2022-11-08T13:52:27.920Z,8.90
2022-11-08T13:55:00.139Z,10.20
2022-11-08T13:57:58.094Z,10.70
2022-11-08T14:00:45.390Z,10.00
2022-11-08T14:03:54.476Z,11.00
2022-11-08T14:06:34.144Z,15.00
2022-11-08T14:09:18.040Z,15.80
2022-11-08T14:11:59.135Z,10.70
2022-11-08T14:14:52.066Z,12.50
2022-11-08T14:17:35.437Z,13.80
2022-11-08T14:20:31.563Z,9.40
2022-11-08T14:23:13.950Z,9.10
2022-11-08T14:25:53.893Z,8.40
2022-11-08T14:28:30.978Z,7.80
2022-11-08T14:31:06.050Z,7.10
2022-11-08T14:33:44.527Z,11.00
2022-11-08T14:36:20.915Z,9.50
2022-11-08T14:39:00.412Z,8.90
2022-11-08T14:41:40.561Z,7.60
2022-11-08T14:44:19.091Z,6.90
2022-11-08T14:46:52.818Z,10.40
2022-11-08T14:49:31.515Z,10.10
2022-11-08T14:52:15.870Z,10.00
2022-11-08T14:54:49.528Z,9.20
2022-11-08T14:57:36.416Z,8.00
2022-11-08T15:00:19.116Z,7.60
2022-11-08T15:02:57.311Z,6.90
2022-11-08T15:05:33.325Z,6.40
2022-11-08T15:08:17.126Z,12.40
2022-11-08T15:10:59.001Z,10.50
2022-11-08T15:13:36.767Z,12.00
2022-11-08T15:16:11.677Z,6.80
2022-11-08T15:18:49.639Z,6.30
2022-11-08T15:21:34.021Z,6.40
2022-11-08T15:24:15.447Z,8.80
2022-11-08T15:27:08.992Z,11.30
2022-11-08T15:30:00.700Z,8.20
2022-11-08T15:32:39.939Z,10.40
2022-11-08T15:35:28.877Z,9.60
2022-11-08T15:38:06.325Z,12.20
2022-11-08T15:40:39.073Z,8.70
2022-11-08T15:43:37.759Z,9.60
2022-11-08T15:46:24.823Z,11.80
2022-11-08T15:49:03.111Z,12.50
2022-11-08T15:51:37.107Z,13.30
2022-11-08T15:54:08.940Z,10.80
2022-11-08T15:56:42.011Z,10.60
2022-11-08T15:59:24.331Z,10.70
2022-11-08T16:01:59.413Z,10.80
2022-11-08T16:04:33.698Z,8.90
2022-11-08T16:07:05.861Z,11.30
2022-11-08T16:09:45.503Z,13.60
2022-11-08T16:12:20.983Z,13.90
2022-11-08T16:14:57.882Z,14.10
2022-11-08T16:17:30.144Z,24.00
2022-11-08T16:20:02.328Z,27.30
2022-11-08T16:22:34.257Z,25.30
2022-11-08T16:25:07.285Z,19.90
2022-11-08T16:27:41.769Z,31.20
2022-11-08T16:30:20.506Z,24.50
2022-11-08T16:33:00.042Z,24.90
2022-11-08T16:35:33.326Z,26.10
2022-11-08T16:38:19.165Z,29.10
2022-11-08T16:40:53.309Z,32.10
2022-11-08T16:43:25.496Z,30.20
2022-11-08T16:46:05.533Z,31.40
2022-11-08T16:48:58.418Z,25.90
2022-11-08T16:51:40.001Z,23.80
2022-11-08T16:54:20.598Z,22.60
2022-11-08T16:57:07.955Z,23.30
2022-11-08T16:59:51.087Z,25.10
2022-11-08T17:02:34.088Z,27.40
2022-11-08T17:05:07.132Z,26.50
2022-11-08T17:07:39.095Z,25.10
2022-11-08T17:10:21.060Z,28.00
2022-11-08T17:12:56.132Z,28.50
2022-11-08T17:15:29.814Z,31.10
2022-11-08T17:18:06.986Z,27.60
2022-11-08T17:20:49.651Z,31.50
2022-11-08T17:23:22.448Z,29.30
2022-11-08T17:25:57.070Z,26.70
2022-11-08T17:28:29.169Z,31.10
2022-11-08T17:31:10.793Z,34.50
2022-11-08T17:33:43.066Z,29.80
2022-11-08T17:36:19.010Z,31.50
2022-11-08T17:38:52.022Z,30.10
2022-11-08T17:41:23.982Z,35.70
2022-11-08T17:43:56.311Z,32.20
2022-11-08T17:46:28.601Z,33.10
2022-11-08T17:49:00.952Z,27.20
2022-11-08T17:51:32.950Z,24.80
2022-11-08T17:54:04.878Z,30.90
2022-11-08T17:56:37.368Z,26.40
2022-11-08T17:59:09.217Z,25.00
2022-11-08T18:01:42.860Z,26.30
2022-11-08T18:04:14.929Z,26.80
2022-11-08T18:06:46.789Z,22.30
2022-11-08T18:09:19.251Z,32.10
2022-11-08T18:11:51.329Z,35.00
2022-11-08T18:14:28.633Z,31.10
2022-11-08T18:17:01.913Z,31.00
2022-11-08T18:19:34.395Z,39.10
2022-11-08T18:22:06.213Z,39.20
2022-11-08T18:24:38.204Z,42.70
2022-11-08T18:27:11.786Z,34.70
2022-11-08T18:29:43.671Z,39.10
2022-11-08T18:32:15.837Z,34.50
2022-11-08T18:34:47.774Z,34.50
2022-11-08T18:37:19.994Z,33.80
2022-11-08T18:39:53.970Z,32.40
2022-11-08T18:42:26.677Z,31.20
2022-11-08T18:45:00.108Z,29.60
2022-11-08T18:47:33.369Z,32.50
2022-11-08T18:50:07.922Z,27.80
2022-11-08T18:52:45.436Z,34.20
2022-11-08T18:55:17.888Z,28.20
2022-11-08T18:57:52.346Z,30.50
2022-11-08T19:00:32.188Z,33.30
2022-11-08T19:03:14.910Z,28.80
2022-11-08T19:06:11.447Z,32.10
2022-11-08T19:08:43.879Z,31.60
2022-11-08T19:11:20.643Z,30.80
2022-11-08T19:13:55.465Z,34.80
2022-11-08T19:16:44.530Z,34.40
2022-11-08T19:19:18.268Z,36.20
2022-11-08T19:21:57.478Z,38.00
2022-11-08T19:24:33.848Z,39.20
2022-11-08T19:27:08.512Z,33.20
2022-11-08T19:29:41.390Z,36.40
2022-11-08T19:32:14.243Z,40.20
2022-11-08T19:34:47.207Z,45.10
2022-11-08T19:37:40.633Z,46.90
2022-11-08T19:40:14.461Z,77.20
2022-11-08T19:42:46.431Z,52.80
2022-11-08T19:45:19.578Z,72.00
2022-11-08T19:47:59.418Z,69.50
2022-11-08T19:50:45.414Z,61.50
2022-11-08T19:53:36.528Z,48.20
2022-11-08T19:56:16.195Z,37.10
2022-11-08T19:58:50.841Z,39.30
2022-11-08T20:01:26.522Z,40.80
2022-11-08T20:04:01.253Z,37.10
2022-11-08T20:06:38.781Z,40.30
2022-11-08T20:09:12.656Z,36.00
2022-11-08T20:11:47.307Z,52.20
2022-11-08T20:14:22.294Z,72.50
2022-11-08T20:16:56.722Z,59.90
2022-11-08T20:19:37.180Z,58.60
2022-11-08T20:22:10.306Z,53.70
2022-11-08T20:24:42.149Z,52.80
2022-11-08T20:27:14.524Z,84.50
2022-11-08T20:29:46.334Z,109.50
2022-11-08T20:32:18.401Z,83.70
2022-11-08T20:34:55.137Z,89.50
2022-11-08T20:37:28.742Z,88.40
2022-11-08T20:40:00.915Z,85.00
2022-11-08T20:42:38.741Z,71.80
2022-11-08T20:45:15.303Z,63.40
2022-11-08T20:47:49.799Z,63.60
2022-11-08T20:50:22.832Z,48.90
2022-11-08T20:52:56.405Z,46.30
2022-11-08T20:55:29.745Z,52.70
2022-11-08T20:58:01.840Z,51.20
2022-11-08T21:00:57.368Z,46.60
2022-11-08T21:03:31.314Z,39.30
2022-11-08T21:06:05.679Z,39.70
2022-11-08T21:09:01.902Z,37.20
2022-11-08T21:11:43.489Z,36.80
2022-11-08T21:14:16.483Z,36.90
2022-11-08T21:17:20.369Z,52.40
2022-11-08T21:19:45.661Z,76.20
2022-11-08T21:22:17.542Z,74.30
2022-11-08T21:24:52.562Z,66.00
2022-11-08T21:27:29.401Z,47.00
2022-11-08T21:30:02.026Z,41.30
2022-11-08T21:32:36.301Z,39.60
2022-11-08T21:35:10.301Z,36.70
2022-11-08T21:37:42.274Z,33.20
2022-11-08T21:40:15.128Z,32.40
2022-11-08T21:42:49.135Z,35.80
2022-11-08T21:45:23.948Z,28.70
2022-11-08T21:47:57.425Z,31.60
2022-11-08T21:50:29.713Z,32.00
2022-11-08T21:53:13.902Z,38.00
2022-11-08T21:55:46.051Z,55.00
2022-11-08T21:58:18.669Z,57.00
2022-11-08T22:00:55.268Z,49.20
2022-11-08T22:03:27.262Z,43.30
2022-11-08T22:06:01.866Z,41.00
2022-11-08T22:08:35.659Z,38.50
2022-11-08T22:11:07.900Z,37.30
2022-11-08T22:13:40.420Z,36.00
2022-11-08T22:16:12.523Z,30.70
2022-11-08T22:21:41.388Z,29.30
2022-11-08T22:24:15.136Z,36.20
2022-11-08T22:26:54.987Z,29.40
2022-11-08T22:29:27.641Z,28.60
2022-11-08T22:32:00.182Z,29.60
2022-11-08T22:34:32.370Z,30.00
2022-11-08T22:37:04.642Z,27.80
2022-11-08T22:39:37.157Z,34.60
2022-11-08T22:42:09.491Z,24.40
2022-11-08T22:44:41.694Z,26.80
2022-11-08T22:47:15.302Z,22.70
2022-11-08T22:49:47.880Z,29.30
2022-11-08T22:52:22.055Z,28.30
2022-11-08T22:54:57.531Z,30.80
2022-11-08T22:57:30.284Z,30.00
2022-11-08T23:00:02.975Z,25.40
2022-11-08T23:02:35.139Z,24.80
2022-11-08T23:05:07.931Z,28.70
2022-11-08T23:07:40.216Z,22.90
2022-11-08T23:10:15.324Z,29.60
2022-11-08T23:13:05.239Z,28.10
2022-11-08T23:15:55.412Z,22.70
2022-11-08T23:18:28.487Z,29.80
2022-11-08T23:21:18.500Z,28.50
2022-11-08T23:24:08.495Z,24.10
2022-11-08T23:26:58.583Z,27.90
2022-11-08T23:29:48.745Z,24.80
2022-11-08T23:32:20.908Z,25.40
2022-11-08T23:34:55.881Z,26.10
2022-11-08T23:37:29.266Z,28.40
2022-11-08T23:40:19.120Z,26.70
2022-11-08T23:43:08.701Z,24.90
2022-11-08T23:45:40.762Z,29.20
2022-11-08T23:48:12.764Z,24.10
2022-11-08T23:50:52.991Z,25.40
2022-11-08T23:53:26.669Z,25.60
2022-11-08T23:55:59.106Z,27.20
2022-11-08T23:58:31.391Z,22.10
